createdAt,value
2022-10-06T00:02:19.187Z,1.50
2022-10-06T00:04:46.897Z,2.00
2022-10-06T00:07:14.497Z,3.72
2022-10-06T00:09:41.674Z,3.03
2022-10-06T00:12:09.217Z,2.20
2022-10-06T00:14:36.262Z,1.20
2022-10-06T00:17:02.905Z,1.88
2022-10-06T00:19:29.543Z,1.15
2022-10-06T00:21:56.153Z,1.17
2022-10-06T00:24:22.860Z,1.42
2022-10-06T00:26:49.475Z,1.00
2022-10-06T00:29:16.051Z,1.20
2022-10-06T00:31:43.337Z,1.10
2022-10-06T00:34:10.360Z,0.90
2022-10-06T00:36:37.227Z,1.30
2022-10-06T00:39:04.026Z,1.27
2022-10-06T00:41:30.834Z,1.25
2022-10-06T00:43:58.307Z,1.20
2022-10-06T00:46:34.228Z,1.15
2022-10-06T00:49:07.076Z,1.20
2022-10-06T00:51:34.615Z,1.30
2022-10-06T00:54:01.547Z,1.20
2022-10-06T00:56:28.424Z,1.05
2022-10-06T00:58:55.163Z,1.08
2022-10-06T01:01:22.020Z,1.10
2022-10-06T01:04:00.874Z,1.08
2022-10-06T01:06:27.749Z,1.17
2022-10-06T01:08:54.661Z,0.95
2022-10-06T01:11:21.315Z,0.90
2022-10-06T01:13:48.037Z,1.08
2022-10-06T01:16:24.341Z,1.13
2022-10-06T01:18:52.925Z,1.15
2022-10-06T01:21:23.245Z,0.98
2022-10-06T01:23:50.259Z,1.30
2022-10-06T01:26:18.419Z,1.00
2022-10-06T01:28:45.725Z,1.10
2022-10-06T01:31:12.784Z,1.20
2022-10-06T01:33:42.309Z,1.23
2022-10-06T01:36:09.114Z,1.35
2022-10-06T01:38:36.582Z,1.17
2022-10-06T01:41:04.072Z,1.20
2022-10-06T01:43:30.844Z,1.17
2022-10-06T01:45:58.893Z,1.00
2022-10-06T01:48:27.106Z,1.00
2022-10-06T01:50:56.236Z,1.30
2022-10-06T01:53:23.191Z,1.15
2022-10-06T01:55:49.916Z,1.45
2022-10-06T01:58:21.040Z,0.90
2022-10-06T02:00:47.960Z,0.95
2022-10-06T02:03:14.727Z,1.77
2022-10-06T02:05:41.825Z,1.10
2022-10-06T02:08:09.702Z,1.40
2022-10-06T02:10:36.841Z,1.58
2022-10-06T02:13:06.820Z,1.10
2022-10-06T02:15:33.917Z,1.25
2022-10-06T02:18:00.599Z,1.15
2022-10-06T02:20:27.485Z,1.42
2022-10-06T02:22:54.106Z,1.20
2022-10-06T02:25:20.760Z,1.73
2022-10-06T02:27:47.914Z,1.45
2022-10-06T02:30:16.263Z,1.75
2022-10-06T02:32:44.227Z,1.25
2022-10-06T02:35:13.011Z,1.15
2022-10-06T02:37:41.421Z,2.42
2022-10-06T02:40:10.223Z,1.25
2022-10-06T02:42:37.532Z,1.60
2022-10-06T02:45:06.946Z,1.52
2022-10-06T02:47:35.552Z,1.95
2022-10-06T02:50:05.305Z,2.13
2022-10-06T02:52:36.835Z,1.65
2022-10-06T02:55:06.228Z,1.30
2022-10-06T02:57:32.914Z,1.63
2022-10-06T03:00:00.384Z,1.75
2022-10-06T03:02:32.042Z,2.30
2022-10-06T03:04:58.888Z,1.90
2022-10-06T03:07:25.622Z,1.85
2022-10-06T03:09:52.308Z,1.25
2022-10-06T03:12:22.351Z,1.70
2022-10-06T03:14:49.098Z,1.70
2022-10-06T03:17:15.912Z,2.40
2022-10-06T03:19:50.853Z,1.33
2022-10-06T03:22:17.547Z,1.98
2022-10-06T03:24:55.688Z,1.58
2022-10-06T03:27:22.691Z,1.73
2022-10-06T03:29:51.534Z,2.03
2022-10-06T03:32:20.188Z,2.30
2022-10-06T03:34:47.686Z,1.95
2022-10-06T03:37:15.555Z,1.83
2022-10-06T03:39:42.226Z,1.30
2022-10-06T03:42:09.606Z,1.52
2022-10-06T03:44:36.862Z,1.73
2022-10-06T03:47:04.144Z,1.83
2022-10-06T03:49:32.009Z,1.65
2022-10-06T03:51:58.707Z,2.45
2022-10-06T03:54:30.057Z,1.38
2022-10-06T03:56:56.870Z,2.05
2022-10-06T03:59:23.986Z,1.45
2022-10-06T04:01:52.856Z,1.88
2022-10-06T04:04:24.632Z,2.28
2022-10-06T04:06:55.577Z,1.77
2022-10-06T04:09:22.433Z,1.67
2022-10-06T04:11:49.219Z,1.50
2022-10-06T04:14:16.645Z,1.67
2022-10-06T04:16:47.355Z,1.55
2022-10-06T04:19:17.578Z,1.88
2022-10-06T04:21:48.539Z,2.08
2022-10-06T04:24:19.323Z,1.70
2022-10-06T04:26:52.409Z,1.92
2022-10-06T04:29:20.522Z,2.15
2022-10-06T04:31:56.804Z,1.75
2022-10-06T04:34:35.435Z,1.52
2022-10-06T04:37:04.048Z,2.03
2022-10-06T04:39:30.812Z,1.77
2022-10-06T04:41:57.742Z,1.95
2022-10-06T04:44:28.532Z,1.90
2022-10-06T04:46:57.985Z,2.30
2022-10-06T04:49:25.205Z,2.00
2022-10-06T04:51:53.404Z,2.22
2022-10-06T04:54:20.948Z,2.67
2022-10-06T04:56:51.345Z,1.80
2022-10-06T04:59:41.410Z,2.08
2022-10-06T05:02:09.247Z,1.98
2022-10-06T05:04:35.960Z,1.88
2022-10-06T05:07:02.712Z,2.00
2022-10-06T05:09:29.360Z,2.30
2022-10-06T05:11:55.966Z,1.98
2022-10-06T05:14:23.007Z,2.17
2022-10-06T05:16:50.144Z,2.30
2022-10-06T05:19:16.965Z,2.00
2022-10-06T05:21:43.654Z,2.28
2022-10-06T05:24:14.280Z,2.35
2022-10-06T05:26:41.418Z,2.60
2022-10-06T05:29:12.486Z,2.03
2022-10-06T05:31:41.181Z,2.30
2022-10-06T05:34:08.521Z,2.45
2022-10-06T05:36:36.180Z,2.55
2022-10-06T05:39:04.104Z,2.20
2022-10-06T05:41:38.561Z,2.85
2022-10-06T05:44:09.013Z,2.40
2022-10-06T05:46:37.882Z,2.35
2022-10-06T05:49:10.738Z,2.30
2022-10-06T05:51:41.690Z,2.45
2022-10-06T05:54:16.608Z,2.25
2022-10-06T05:56:43.379Z,2.40
2022-10-06T05:59:10.630Z,2.88
2022-10-06T06:01:40.230Z,2.45
2022-10-06T06:04:14.035Z,1.75
2022-10-06T06:06:48.811Z,2.40
2022-10-06T06:09:23.329Z,2.95
2022-10-06T06:11:53.109Z,2.50
2022-10-06T06:14:51.292Z,2.22
2022-10-06T06:17:22.422Z,2.55
2022-10-06T06:19:50.060Z,2.03
2022-10-06T06:22:16.667Z,2.58
2022-10-06T06:24:45.605Z,3.00
2022-10-06T06:27:12.722Z,2.25
2022-10-06T06:29:40.181Z,3.05
2022-10-06T06:32:09.641Z,2.22
2022-10-06T06:34:36.854Z,2.38
2022-10-06T06:37:08.396Z,2.42
2022-10-06T06:39:38.569Z,2.00
2022-10-06T06:42:08.322Z,2.33
2022-10-06T06:44:37.581Z,1.88
2022-10-06T06:47:09.778Z,2.67
2022-10-06T06:49:36.471Z,2.17
2022-10-06T06:52:06.638Z,2.47
2022-10-06T06:54:35.039Z,2.63
2022-10-06T06:57:07.260Z,2.88
2022-10-06T06:59:34.496Z,2.65
2022-10-06T07:02:01.508Z,3.20
2022-10-06T07:04:32.828Z,2.67
2022-10-06T07:06:59.899Z,3.58
2022-10-06T07:09:29.828Z,3.05
2022-10-06T07:12:01.694Z,2.72
2022-10-06T07:14:29.315Z,3.35
2022-10-06T07:17:14.566Z,3.42
2022-10-06T07:20:04.642Z,3.05
2022-10-06T07:22:50.816Z,3.20
2022-10-06T07:25:26.973Z,2.65
2022-10-06T07:28:04.050Z,2.83
2022-10-06T07:30:40.701Z,2.97
2022-10-06T07:33:11.526Z,2.45
2022-10-06T07:35:39.286Z,3.00
2022-10-06T07:38:07.904Z,2.80
2022-10-06T07:40:46.269Z,2.13
2022-10-06T07:43:23.570Z,3.05
2022-10-06T07:45:51.570Z,3.65
2022-10-06T07:48:23.901Z,3.22
2022-10-06T07:50:57.689Z,2.85
2022-10-06T07:53:32.022Z,2.30
2022-10-06T07:56:21.845Z,2.67
2022-10-06T07:58:53.581Z,2.38
2022-10-06T08:01:20.737Z,2.55
2022-10-06T08:03:48.584Z,2.47
2022-10-06T08:06:19.776Z,2.72
2022-10-06T08:08:52.423Z,2.50
2022-10-06T08:11:20.975Z,2.05
2022-10-06T08:13:51.710Z,2.40
2022-10-06T08:16:20.603Z,2.20
2022-10-06T08:18:53.251Z,2.88
2022-10-06T08:21:26.085Z,2.50
2022-10-06T08:23:54.276Z,2.08
2022-10-06T08:26:22.104Z,2.78
2022-10-06T08:28:51.600Z,2.53
2022-10-06T08:31:21.289Z,2.22
2022-10-06T08:33:48.580Z,1.92
2022-10-06T08:36:17.243Z,2.05
2022-10-06T08:38:50.005Z,1.98
2022-10-06T08:41:22.735Z,2.45
2022-10-06T08:43:56.117Z,2.38
2022-10-06T08:46:25.552Z,2.72
2022-10-06T08:48:52.228Z,2.47
2022-10-06T08:51:45.801Z,2.28
2022-10-06T08:54:15.550Z,2.60
2022-10-06T08:56:56.292Z,2.38
2022-10-06T08:59:23.028Z,2.17
2022-10-06T09:01:52.168Z,2.20
2022-10-06T09:04:29.161Z,3.05
2022-10-06T09:07:16.731Z,2.17
2022-10-06T09:10:02.012Z,2.08
2022-10-06T09:12:44.024Z,2.60
2022-10-06T09:15:19.592Z,1.55
2022-10-06T09:17:54.467Z,1.90
2022-10-06T09:20:47.361Z,2.47
2022-10-06T09:23:38.339Z,1.90
2022-10-06T09:26:05.955Z,2.17
2022-10-06T09:28:33.631Z,2.25
2022-10-06T09:31:03.104Z,1.92
2022-10-06T09:33:37.286Z,1.67
2022-10-06T09:36:09.733Z,2.20
2022-10-06T09:38:53.988Z,2.33
2022-10-06T09:41:42.322Z,2.13
2022-10-06T09:44:24.782Z,2.70
2022-10-06T09:46:52.549Z,1.98
2022-10-06T09:49:20.405Z,2.47
2022-10-06T09:52:02.998Z,2.20
2022-10-06T09:54:34.513Z,1.63
2022-10-06T09:57:08.987Z,2.45
2022-10-06T09:59:42.129Z,2.40
2022-10-06T10:02:26.941Z,2.08
2022-10-06T10:04:57.439Z,2.15
2022-10-06T10:07:26.415Z,2.28
2022-10-06T10:09:54.782Z,2.00
2022-10-06T10:12:25.113Z,2.05
2022-10-06T10:14:52.713Z,2.00
2022-10-06T10:17:35.194Z,2.28
2022-10-06T10:20:03.246Z,2.17
2022-10-06T10:22:36.027Z,2.38
2022-10-06T10:25:44.796Z,2.13
2022-10-06T10:28:14.152Z,1.55
2022-10-06T10:30:50.033Z,1.73
2022-10-06T10:33:46.156Z,1.38
2022-10-06T10:36:23.243Z,1.98
2022-10-06T10:38:50.105Z,2.10
2022-10-06T10:41:21.888Z,1.80
2022-10-06T10:44:15.209Z,1.63
2022-10-06T10:46:49.755Z,1.67
2022-10-06T10:49:23.821Z,1.90
2022-10-06T10:51:52.374Z,1.75
2022-10-06T10:54:25.109Z,1.33
2022-10-06T10:56:53.009Z,1.75
2022-10-06T10:59:27.659Z,2.00
2022-10-06T11:02:07.443Z,1.60
2022-10-06T11:04:34.252Z,2.58
2022-10-06T11:07:13.703Z,1.42
2022-10-06T11:09:51.661Z,1.30
2022-10-06T11:12:27.422Z,1.58
2022-10-06T11:14:59.498Z,1.60
2022-10-06T11:17:42.857Z,1.80
2022-10-06T11:20:31.800Z,1.23
2022-10-06T11:23:21.495Z,1.55
2022-10-06T11:26:01.227Z,1.40
2022-10-06T11:29:03.840Z,1.88
2022-10-06T11:31:39.875Z,1.75
2022-10-06T11:34:06.707Z,1.63
2022-10-06T11:36:34.840Z,1.67
2022-10-06T11:39:17.175Z,1.70
2022-10-06T11:41:49.409Z,1.33
2022-10-06T11:44:37.591Z,1.60
2022-10-06T11:47:08.310Z,1.50
2022-10-06T11:49:35.105Z,1.27
2022-10-06T11:52:08.664Z,1.17
2022-10-06T11:54:47.745Z,1.83
2022-10-06T11:57:27.951Z,1.58
2022-10-06T12:00:03.458Z,1.50
2022-10-06T12:02:40.645Z,1.75
2022-10-06T12:05:36.334Z,1.40
2022-10-06T12:07:57.601Z,1.15
2022-10-06T12:10:31.956Z,1.52
2022-10-06T12:13:21.243Z,1.60
2022-10-06T12:17:05.638Z,1.42
2022-10-06T12:18:47.210Z,1.50
2022-10-06T12:21:45.311Z,1.95
2022-10-06T12:24:27.758Z,1.60
2022-10-06T12:27:26.411Z,1.77
2022-10-06T12:30:05.285Z,1.42
2022-10-06T12:32:51.817Z,1.50
2022-10-06T12:35:26.001Z,1.70
2022-10-06T12:37:55.012Z,1.60
2022-10-06T12:40:41.935Z,2.15
2022-10-06T12:43:14.651Z,1.50
2022-10-06T12:45:46.265Z,1.50
2022-10-06T12:48:18.861Z,2.05
2022-10-06T12:50:45.624Z,1.92
2022-10-06T12:53:18.136Z,1.58
2022-10-06T12:55:51.611Z,1.40
2022-10-06T12:58:20.184Z,1.25
2022-10-06T13:00:47.380Z,1.20
2022-10-06T13:03:24.427Z,1.70
2022-10-06T13:05:53.442Z,1.70
2022-10-06T13:08:25.567Z,1.52
2022-10-06T13:11:22.783Z,1.25
2022-10-06T13:13:54.642Z,1.27
2022-10-06T13:16:31.280Z,1.42
2022-10-06T13:19:00.096Z,1.27
2022-10-06T13:21:30.597Z,1.90
2022-10-06T13:23:57.184Z,1.63
2022-10-06T13:26:27.565Z,1.70
2022-10-06T13:28:56.370Z,1.83
2022-10-06T13:31:27.943Z,1.88
2022-10-06T13:33:58.745Z,1.60
2022-10-06T13:36:27.310Z,1.48
2022-10-06T13:38:54.266Z,1.92
2022-10-06T13:41:30.720Z,1.75
2022-10-06T13:44:14.111Z,1.25
2022-10-06T13:46:43.994Z,1.88
2022-10-06T13:49:27.484Z,1.50
2022-10-06T13:51:55.402Z,1.67
2022-10-06T13:54:40.702Z,1.75
2022-10-06T13:57:36.350Z,1.33
2022-10-06T14:00:15.286Z,1.73
2022-10-06T14:02:43.166Z,1.42
2022-10-06T14:05:36.963Z,1.77
2022-10-06T14:08:12.915Z,1.50
2022-10-06T14:10:52.588Z,1.17
2022-10-06T14:13:22.084Z,1.73
2022-10-06T14:15:53.912Z,1.30
2022-10-06T14:18:24.919Z,1.45
2022-10-06T14:20:53.663Z,1.60
2022-10-06T14:23:48.147Z,1.63
2022-10-06T14:26:16.041Z,1.45
2022-10-06T14:28:54.089Z,1.23
2022-10-06T14:31:21.748Z,1.48
2022-10-06T14:33:52.743Z,1.40
2022-10-06T14:36:22.834Z,1.10
2022-10-06T14:38:51.001Z,1.27
2022-10-06T14:41:24.952Z,1.30
2022-10-06T14:43:55.892Z,1.38
2022-10-06T14:46:24.427Z,1.17
2022-10-06T14:48:51.731Z,1.48
2022-10-06T14:51:19.234Z,1.23
2022-10-06T14:53:56.830Z,1.30
2022-10-06T14:56:29.109Z,1.45
2022-10-06T14:58:55.957Z,1.30
2022-10-06T15:01:25.271Z,1.50
2022-10-06T15:03:56.071Z,1.30
2022-10-06T15:06:41.860Z,1.27
2022-10-06T15:09:09.191Z,1.30
2022-10-06T15:11:36.990Z,1.50
2022-10-06T15:14:04.511Z,1.13
2022-10-06T15:16:35.230Z,1.08
2022-10-06T15:19:05.416Z,1.38
2022-10-06T15:21:33.172Z,1.30
2022-10-06T15:24:01.872Z,1.20
2022-10-06T15:26:47.258Z,1.35
2022-10-06T15:29:14.385Z,1.67
2022-10-06T15:31:43.271Z,1.50
2022-10-06T15:34:12.713Z,1.00
2022-10-06T15:36:41.503Z,0.93
2022-10-06T15:39:12.417Z,1.30
2022-10-06T15:41:40.672Z,0.95
2022-10-06T15:44:08.648Z,1.48
2022-10-06T15:46:40.991Z,1.30
2022-10-06T15:49:12.103Z,1.20
2022-10-06T15:51:48.831Z,1.30
2022-10-06T15:54:21.965Z,1.63
2022-10-06T15:56:58.820Z,1.77
2022-10-06T15:59:26.537Z,1.98
2022-10-06T16:02:04.927Z,1.33
2022-10-06T16:04:39.046Z,0.90
2022-10-06T16:07:16.498Z,1.08
2022-10-06T16:09:48.022Z,1.20
2022-10-06T16:12:25.196Z,1.10
2022-10-06T16:14:52.105Z,2.00
2022-10-06T16:17:18.946Z,1.77
2022-10-06T16:19:46.936Z,2.38
2022-10-06T16:22:16.018Z,3.78
2022-10-06T16:24:44.539Z,1.48
2022-10-06T16:27:12.786Z,1.73
2022-10-06T16:29:39.457Z,1.88
2022-10-06T16:32:06.215Z,15.90
2022-10-06T16:34:33.338Z,4.88
2022-10-06T16:37:02.301Z,3.60
2022-10-06T16:39:29.136Z,4.07
2022-10-06T16:41:55.849Z,5.28
2022-10-06T16:44:22.627Z,12.23
2022-10-06T16:46:49.344Z,6.55
2022-10-06T16:49:16.420Z,4.35
2022-10-06T16:51:45.726Z,3.38
2022-10-06T16:54:15.201Z,2.95
2022-10-06T16:56:51.677Z,4.40
2022-10-06T16:59:20.340Z,4.07
2022-10-06T17:01:48.837Z,4.40
2022-10-06T17:04:25.351Z,3.45
2022-10-06T17:06:54.350Z,4.20
2022-10-06T17:09:23.809Z,5.47
2022-10-06T17:11:55.325Z,3.90
2022-10-06T17:14:23.440Z,2.95
2022-10-06T17:16:51.432Z,2.67
2022-10-06T17:19:19.737Z,2.95
2022-10-06T17:21:48.744Z,4.50
2022-10-06T17:24:18.110Z,3.08
2022-10-06T17:26:49.721Z,3.17
2022-10-06T17:29:21.971Z,6.13
2022-10-06T17:31:59.935Z,3.80
2022-10-06T17:34:32.493Z,2.95
2022-10-06T17:37:00.842Z,5.32
2022-10-06T17:39:28.074Z,6.97
2022-10-06T17:41:54.748Z,4.65
2022-10-06T17:44:24.214Z,3.17
2022-10-06T17:46:53.273Z,2.95
2022-10-06T17:49:21.664Z,3.67
2022-10-06T17:51:51.496Z,7.55
2022-10-06T17:54:23.464Z,5.35
2022-10-06T17:56:56.454Z,3.53
2022-10-06T17:59:28.347Z,2.78
2022-10-06T18:01:58.842Z,2.97
2022-10-06T18:04:26.636Z,3.10
2022-10-06T18:06:53.828Z,3.15
2022-10-06T18:09:20.926Z,2.80
2022-10-06T18:11:56.330Z,2.95
2022-10-06T18:14:26.077Z,3.92
2022-10-06T18:16:59.124Z,4.63
2022-10-06T18:19:31.503Z,3.38
2022-10-06T18:22:00.548Z,5.25
2022-10-06T18:24:30.975Z,4.03
2022-10-06T18:27:08.100Z,4.15
2022-10-06T18:29:37.923Z,3.15
2022-10-06T18:37:39.729Z,3.53
2022-10-06T18:40:09.899Z,3.42
2022-10-06T18:42:39.137Z,3.42
2022-10-06T18:45:27.258Z,3.20
2022-10-06T18:48:12.618Z,3.38
2022-10-06T18:50:39.548Z,3.58
2022-10-06T18:53:10.341Z,3.13
2022-10-06T18:55:37.250Z,3.88
2022-10-06T18:58:04.900Z,2.88
2022-10-06T19:00:33.328Z,3.85
2022-10-06T19:03:00.752Z,3.65
2022-10-06T19:05:27.569Z,3.63
2022-10-06T19:07:54.207Z,3.60
2022-10-06T19:10:21.035Z,3.72
2022-10-06T19:12:48.447Z,3.55
2022-10-06T19:15:20.658Z,3.72
2022-10-06T19:17:48.500Z,3.53
2022-10-06T19:20:15.274Z,3.88
2022-10-06T19:22:43.516Z,3.65
2022-10-06T19:25:10.325Z,3.80
2022-10-06T19:27:38.112Z,4.72
2022-10-06T19:30:05.760Z,7.03
2022-10-06T19:32:32.817Z,8.55
2022-10-06T19:34:59.600Z,11.10
2022-10-06T19:37:27.625Z,7.90
2022-10-06T19:39:55.536Z,9.13
2022-10-06T19:42:40.923Z,11.43
2022-10-06T19:45:08.514Z,10.82
2022-10-06T19:47:35.174Z,8.88
2022-10-06T19:50:08.787Z,13.27
2022-10-06T19:52:38.198Z,13.63
2022-10-06T19:55:06.120Z,11.82
2022-10-06T19:57:34.039Z,11.57
2022-10-06T20:00:00.939Z,11.75
2022-10-06T20:02:28.724Z,11.60
2022-10-06T20:04:56.336Z,13.60
2022-10-06T20:07:28.109Z,12.98
2022-10-06T20:09:55.626Z,11.57
2022-10-06T20:12:25.256Z,13.13
2022-10-06T20:14:53.551Z,12.40
2022-10-06T20:17:20.982Z,13.75
2022-10-06T20:19:47.823Z,12.35
2022-10-06T20:22:15.057Z,12.82
2022-10-06T20:24:41.832Z,10.85
2022-10-06T20:27:08.967Z,9.68
2022-10-06T20:29:35.694Z,9.85
2022-10-06T20:32:02.432Z,9.00
2022-10-06T20:34:32.653Z,10.10
2022-10-06T20:37:01.904Z,9.35
2022-10-06T20:39:48.786Z,8.75
2022-10-06T20:42:15.757Z,7.82
2022-10-06T20:44:43.325Z,8.25
2022-10-06T20:47:12.012Z,8.52
2022-10-06T20:49:38.770Z,10.30
2022-10-06T20:52:06.187Z,8.15
2022-10-06T20:54:35.738Z,8.73
2022-10-06T20:57:05.081Z,9.70
2022-10-06T20:59:32.260Z,10.20
2022-10-06T21:02:00.066Z,9.07
2022-10-06T21:04:27.672Z,9.60
2022-10-06T21:06:54.706Z,10.02
2022-10-06T21:09:21.827Z,8.93
2022-10-06T21:11:49.379Z,8.75
2022-10-06T21:14:16.194Z,9.35
2022-10-06T21:16:45.336Z,9.45
2022-10-06T21:19:17.062Z,9.25
2022-10-06T21:21:46.074Z,7.82
2022-10-06T21:24:12.771Z,8.98
2022-10-06T21:26:42.535Z,8.07
2022-10-06T21:29:12.098Z,8.15
2022-10-06T21:31:39.074Z,8.85
2022-10-06T21:34:05.775Z,8.20
2022-10-06T21:36:32.558Z,8.20
2022-10-06T21:39:01.720Z,8.00
2022-10-06T21:41:30.548Z,8.68
2022-10-06T21:44:10.688Z,8.43
2022-10-06T21:46:42.888Z,7.47
2022-10-06T21:49:14.370Z,8.63
2022-10-06T21:51:42.669Z,8.25
2022-10-06T21:54:12.153Z,7.10
2022-10-06T21:56:42.226Z,8.52
2022-10-06T21:59:09.352Z,8.27
2022-10-06T22:01:38.850Z,6.18
2022-10-06T22:04:06.265Z,9.38
2022-10-06T22:06:35.107Z,8.48
2022-10-06T22:09:03.403Z,8.65
2022-10-06T22:11:33.600Z,9.70
2022-10-06T22:14:02.581Z,9.77
2022-10-06T22:16:31.937Z,8.18
2022-10-06T22:18:59.220Z,6.93
2022-10-06T22:21:28.568Z,6.05
2022-10-06T22:24:00.435Z,6.07
2022-10-06T22:26:28.484Z,6.10
2022-10-06T22:28:57.350Z,5.70
2022-10-06T22:31:26.242Z,5.90
2022-10-06T22:33:55.344Z,5.47
2022-10-06T22:36:22.268Z,5.63
2022-10-06T22:38:48.912Z,6.07
2022-10-06T22:41:15.915Z,6.38
2022-10-06T22:43:42.661Z,4.88
2022-10-06T22:46:10.098Z,5.20
2022-10-06T22:48:37.343Z,6.72
2022-10-06T22:51:04.781Z,5.53
2022-10-06T22:53:31.895Z,5.82
2022-10-06T22:56:02.471Z,7.00
2022-10-06T22:58:29.633Z,5.95
2022-10-06T23:00:56.482Z,7.50
2022-10-06T23:03:29.623Z,5.55
2022-10-06T23:05:59.235Z,6.00
2022-10-06T23:08:30.018Z,5.53
2022-10-06T23:11:13.098Z,5.60
2022-10-06T23:13:40.447Z,5.82
2022-10-06T23:16:08.925Z,5.53
2022-10-06T23:18:38.324Z,5.55
2022-10-06T23:21:08.993Z,5.80
2022-10-06T23:23:36.070Z,6.35
2022-10-06T23:26:07.880Z,5.00
2022-10-06T23:28:37.220Z,5.40
2022-10-06T23:31:05.544Z,5.43
2022-10-06T23:33:33.220Z,5.45
2022-10-06T23:36:05.813Z,4.95
2022-10-06T23:38:32.655Z,4.57
2022-10-06T23:40:59.300Z,4.60
2022-10-06T23:43:26.143Z,5.32
2022-10-06T23:45:53.164Z,4.88
2022-10-06T23:48:20.140Z,5.93
2022-10-06T23:51:00.308Z,6.50
2022-10-06T23:53:27.896Z,5.43
2022-10-06T23:55:55.353Z,5.90
2022-10-06T23:58:22.708Z,6.43
